PWSweather.com
Personal Weather Stations
Station Observations
BANEKERE1
AntwerpenBE

AntwerpenBE

Lat: 51.2809101, Lon: 4.4202713

Elevation: 40

Station Type:

http://www.akker.be

Latest ConditionsUpdated 4:30:02 AM GMT+01:01 Monday, May 2, 2016
Currently Today's Max Today's Min Today's Average
Temperature 38.6°F3.7°C 45.1°F7.3°C 38.6°F3.7°C 41.3°F5.2°C
Dew Point 34.8°F1.6°C 37.0°F2.8°C 34.8°F1.6°C 35.8°F2.1°C
Winds Calm Calm Calm NWCalm NW - Calm Calm
Wind Gusts -- -- - -
Humidity 86% 86% 73% 81%
Pressure 30.33 in1027.1 mb 30.38 in1028.8 mb 30.33 in1027.1 mb -
Hour Temp Dew Point Humidity Winds Wind Gusts Pressure Precip Precip Rate Daily Precip Total
04:30 AM 38.6°F3.7°C 34.8°F1.6°C 86% Calm Calm -- 30.33 in1027.1 mb - 0.00 in0.0 mm 0.00 in0.0 mm
04:20 AM 38.8°F3.8°C 35.0°F1.7°C 86% Calm Calm -- 30.33 in1027.1 mb - 0.00 in0.0 mm 0.00 in0.0 mm
04:10 AM 38.9°F3.8°C 35.1°F1.7°C 86% Calm Calm -- 30.34 in1027.4 mb - 0.00 in0.0 mm 0.00 in0.0 mm
04:00 AM 39.1°F3.9°C 35.3°F1.8°C 86% Calm Calm -- 30.34 in1027.4 mb - 0.00 in0.0 mm 0.00 in0.0 mm
03:50 AM 39.2°F4.0°C 35.1°F1.7°C 85% Calm Calm -- 30.34 in1027.4 mb - 0.00 in0.0 mm 0.00 in0.0 mm
03:40 AM 39.4°F4.1°C 35.3°F1.8°C 85% Calm Calm -- 30.35 in1027.8 mb - 0.00 in0.0 mm 0.00 in0.0 mm
03:30 AM 39.6°F4.2°C 35.4°F1.9°C 85% Calm Calm -- 30.35 in1027.8 mb - 0.00 in0.0 mm 0.00 in0.0 mm
03:20 AM 39.8°F4.3°C 35.3°F1.8°C 84% Calm Calm -- 30.35 in1027.8 mb - 0.00 in0.0 mm 0.00 in0.0 mm
03:10 AM 40.0°F4.4°C 35.6°F2.0°C 84% Calm Calm -- 30.35 in1027.8 mb - 0.00 in0.0 mm 0.00 in0.0 mm
03:00 AM 40.2°F4.6°C 35.8°F2.1°C 84% Calm Calm -- 30.35 in1027.8 mb - 0.00 in0.0 mm 0.00 in0.0 mm
02:50 AM 40.4°F4.7°C 35.6°F2.0°C 83% Calm Calm -- 30.35 in1027.8 mb - 0.00 in0.0 mm 0.00 in0.0 mm
02:40 AM 40.5°F4.7°C 35.8°F2.1°C 83% Calm Calm -- 30.35 in1027.8 mb - 0.00 in0.0 mm 0.00 in0.0 mm
02:30 AM 40.7°F4.8°C 35.6°F2.0°C 82% Calm Calm -- 30.36 in1028.1 mb - 0.00 in0.0 mm 0.00 in0.0 mm
02:20 AM 40.9°F4.9°C 35.8°F2.1°C 82% Calm Calm -- 30.36 in1028.1 mb - 0.00 in0.0 mm 0.00 in0.0 mm
02:10 AM 41.1°F5.1°C 36.0°F2.2°C 82% Calm Calm -- 30.36 in1028.1 mb - 0.00 in0.0 mm 0.00 in0.0 mm
02:00 AM 41.3°F5.2°C 35.9°F2.2°C 81% Calm Calm -- 30.36 in1028.1 mb - 0.00 in0.0 mm 0.00 in0.0 mm
01:50 AM 41.5°F5.3°C 35.8°F2.1°C 80% Calm Calm -- 30.36 in1028.1 mb - 0.00 in0.0 mm 0.00 in0.0 mm
01:40 AM 41.8°F5.4°C 36.1°F2.3°C 80% Calm Calm -- 30.36 in1028.1 mb - 0.00 in0.0 mm 0.00 in0.0 mm
01:30 AM 42.0°F5.6°C 35.9°F2.2°C 79% Calm Calm -- 30.36 in1028.1 mb - 0.00 in0.0 mm 0.00 in0.0 mm
01:20 AM 42.3°F5.7°C 35.9°F2.2°C 78% Calm Calm -- 30.36 in1028.1 mb - 0.00 in0.0 mm 0.00 in0.0 mm
01:10 AM 42.6°F5.9°C 36.2°F2.3°C 78% Calm Calm -- 30.36 in1028.1 mb - 0.00 in0.0 mm 0.00 in0.0 mm
01:00 AM 42.9°F6.1°C 36.2°F2.3°C 77% Calm Calm -- 30.36 in1028.1 mb - 0.00 in0.0 mm 0.00 in0.0 mm
12:50 AM 43.2°F6.2°C 36.5°F2.5°C 77% Calm Calm -- 30.36 in1028.1 mb - 0.00 in0.0 mm 0.00 in0.0 mm
12:40 AM 43.6°F6.4°C 36.5°F2.5°C 76% Calm Calm -- 30.36 in1028.1 mb - 0.00 in0.0 mm 0.00 in0.0 mm
12:30 AM 43.9°F6.6°C 36.5°F2.5°C 75% Calm Calm -- 30.37 in1028.4 mb - 0.00 in0.0 mm 0.00 in0.0 mm
12:20 AM 44.3°F6.8°C 36.5°F2.5°C 74% Calm Calm -- 30.37 in1028.4 mb - 0.00 in0.0 mm 0.00 in0.0 mm
12:10 AM 44.7°F7.1°C 36.6°F2.6°C 73% Calm Calm -- 30.37 in1028.4 mb - 0.00 in0.0 mm 0.00 in0.0 mm
12:00 AM 45.1°F7.3°C 37.0°F2.8°C 73% Calm Calm -- 30.38 in1028.8 mb - 0.00 in0.0 mm 0.00 in0.0 mm